Weather at Dubai International Airport

Public forecast

Using degrees Celsius for public forecast. Weather courtesy of forecast.io.

Current aviation weather report (METAR) for Dubai International Airport

Report is more than 6 hours old.

Retrieved 2022/09/17 19:00 UTC (18 days ago):

OMDB 171900Z 22003KT CAVOK 34/23 Q1002 NOSIG

Aviation forecast (TAF) for Dubai International Airport

Forecast is more than 12 hours old.

Retrieved 2022/09/17 18:00 UTC (18 days ago):

TAF OMDB 171700Z 1718/1900 26010KT 8000 NSC BECMG 1718/1720 18005KT PROB30 1800/1805 4000 HZ BKN012 BECMG 1807/1809 33014KT BECMG 1816/1818 04005KT PROB30 1823/1900 3000 BR BKN008